sensor_id;sensor_type;location;lat;lon;timestamp;P1;durP1;ratioP1;P2;durP2;ratioP2
75090;SDS011;63674;48.048;8.306;2023-10-13T00:02:10;10.85;;;4.32;;
75090;SDS011;63674;48.048;8.306;2023-10-13T00:04:40;12.50;;;4.37;;
75090;SDS011;63674;48.048;8.306;2023-10-13T00:07:09;11.80;;;4.00;;
75090;SDS011;63674;48.048;8.306;2023-10-13T00:09:38;12.52;;;3.85;;
75090;SDS011;63674;48.048;8.306;2023-10-13T00:12:07;12.43;;;4.75;;
75090;SDS011;63674;48.048;8.306;2023-10-13T00:14:41;13.07;;;4.50;;
75090;SDS011;63674;48.048;8.306;2023-10-13T00:17:12;12.10;;;4.00;;
75090;SDS011;63674;48.048;8.306;2023-10-13T00:19:47;13.30;;;4.40;;
75090;SDS011;63674;48.048;8.306;2023-10-13T00:22:19;15.95;;;3.90;;
75090;SDS011;63674;48.048;8.306;2023-10-13T00:24:49;13.00;;;4.30;;
75090;SDS011;63674;48.048;8.306;2023-10-13T00:27:25;13.63;;;4.00;;
75090;SDS011;63674;48.048;8.306;2023-10-13T00:29:58;13.93;;;4.20;;
75090;SDS011;63674;48.048;8.306;2023-10-13T00:32:49;11.35;;;4.70;;
75090;SDS011;63674;48.048;8.306;2023-10-13T00:35:22;11.77;;;4.50;;
75090;SDS011;63674;48.048;8.306;2023-10-13T00:37:55;12.90;;;3.88;;
75090;SDS011;63674;48.048;8.306;2023-10-13T00:40:25;10.75;;;4.05;;
75090;SDS011;63674;48.048;8.306;2023-10-13T00:43:10;13.13;;;4.80;;
75090;SDS011;63674;48.048;8.306;2023-10-13T00:45:59;12.55;;;4.18;;
75090;SDS011;63674;48.048;8.306;2023-10-13T00:48:40;12.00;;;4.30;;
75090;SDS011;63674;48.048;8.306;2023-10-13T00:51:10;10.60;;;3.70;;
75090;SDS011;63674;48.048;8.306;2023-10-13T00:53:59;11.88;;;4.50;;
75090;SDS011;63674;48.048;8.306;2023-10-13T00:56:34;13.70;;;4.07;;
75090;SDS011;63674;48.048;8.306;2023-10-13T00:59:07;10.63;;;4.20;;
75090;SDS011;63674;48.048;8.306;2023-10-13T01:01:38;12.50;;;4.30;;
75090;SDS011;63674;48.048;8.306;2023-10-13T01:04:09;12.23;;;4.13;;
75090;SDS011;63674;48.048;8.306;2023-10-13T01:06:39;11.95;;;3.80;;
75090;SDS011;63674;48.048;8.306;2023-10-13T01:09:08;12.83;;;4.30;;
75090;SDS011;63674;48.048;8.306;2023-10-13T01:11:41;13.68;;;4.90;;
75090;SDS011;63674;48.048;8.306;2023-10-13T01:14:11;15.10;;;4.43;;
75090;SDS011;63674;48.048;8.306;2023-10-13T01:16:43;14.80;;;4.10;;
75090;SDS011;63674;48.048;8.306;2023-10-13T01:19:12;12.68;;;4.97;;
75090;SDS011;63674;48.048;8.306;2023-10-13T01:21:47;13.53;;;4.77;;
75090;SDS011;63674;48.048;8.306;2023-10-13T01:24:17;14.10;;;4.70;;
75090;SDS011;63674;48.048;8.306;2023-10-13T01:26:52;13.23;;;4.40;;
75090;SDS011;63674;48.048;8.306;2023-10-13T01:29:20;11.82;;;4.55;;
75090;SDS011;63674;48.048;8.306;2023-10-13T01:31:52;12.15;;;4.10;;
75090;SDS011;63674;48.048;8.306;2023-10-13T01:34:21;10.47;;;3.90;;
75090;SDS011;63674;48.048;8.306;2023-10-13T01:36:49;10.23;;;4.32;;
75090;SDS011;63674;48.048;8.306;2023-10-13T01:39:21;12.20;;;4.22;;
75090;SDS011;63674;48.048;8.306;2023-10-13T01:41:54;10.88;;;4.10;;
75090;SDS011;63674;48.048;8.306;2023-10-13T01:44:42;8.90;;;3.88;;
75090;SDS011;63674;48.048;8.306;2023-10-13T01:47:29;8.77;;;3.57;;
75090;SDS011;63674;48.048;8.306;2023-10-13T01:50:15;10.35;;;3.70;;
75090;SDS011;63674;48.048;8.306;2023-10-13T01:53:06;10.10;;;3.85;;
75090;SDS011;63674;48.048;8.306;2023-10-13T01:55:58;8.07;;;3.60;;
75090;SDS011;63674;48.048;8.306;2023-10-13T01:58:50;9.73;;;3.97;;
75090;SDS011;63674;48.048;8.306;2023-10-13T02:01:39;9.13;;;3.60;;
75090;SDS011;63674;48.048;8.306;2023-10-13T02:04:27;8.25;;;3.50;;
75090;SDS011;63674;48.048;8.306;2023-10-13T02:07:13;14.15;;;3.90;;
75090;SDS011;63674;48.048;8.306;2023-10-13T02:10:01;11.95;;;4.10;;
75090;SDS011;63674;48.048;8.306;2023-10-13T02:12:51;17.05;;;4.05;;
75090;SDS011;63674;48.048;8.306;2023-10-13T02:15:41;14.10;;;3.73;;
75090;SDS011;63674;48.048;8.306;2023-10-13T02:18:29;8.50;;;3.53;;
75090;SDS011;63674;48.048;8.306;2023-10-13T02:25:30;9.43;;;3.40;;
75090;SDS011;63674;48.048;8.306;2023-10-13T02:28:10;9.30;;;3.60;;
75090;SDS011;63674;48.048;8.306;2023-10-13T02:30:41;10.57;;;3.80;;
75090;SDS011;63674;48.048;8.306;2023-10-13T02:33:12;9.20;;;3.40;;
75090;SDS011;63674;48.048;8.306;2023-10-13T02:35:40;12.20;;;3.33;;
75090;SDS011;63674;48.048;8.306;2023-10-13T02:38:20;9.20;;;3.42;;
75090;SDS011;63674;48.048;8.306;2023-10-13T02:40:55;10.52;;;3.95;;
75090;SDS011;63674;48.048;8.306;2023-10-13T02:43:34;10.67;;;3.87;;
75090;SDS011;63674;48.048;8.306;2023-10-13T02:46:03;10.48;;;4.30;;
75090;SDS011;63674;48.048;8.306;2023-10-13T02:48:51;9.02;;;4.10;;
75090;SDS011;63674;48.048;8.306;2023-10-13T02:51:19;10.93;;;4.10;;
75090;SDS011;63674;48.048;8.306;2023-10-13T02:53:57;11.23;;;4.30;;
75090;SDS011;63674;48.048;8.306;2023-10-13T02:56:29;11.17;;;4.60;;
75090;SDS011;63674;48.048;8.306;2023-10-13T02:58:59;11.60;;;4.65;;
75090;SDS011;63674;48.048;8.306;2023-10-13T03:01:31;15.48;;;5.38;;
75090;SDS011;63674;48.048;8.306;2023-10-13T03:04:02;14.40;;;5.18;;
75090;SDS011;63674;48.048;8.306;2023-10-13T03:06:30;11.57;;;4.80;;
75090;SDS011;63674;48.048;8.306;2023-10-13T03:09:02;13.07;;;4.50;;
75090;SDS011;63674;48.048;8.306;2023-10-13T03:11:44;12.63;;;4.43;;
75090;SDS011;63674;48.048;8.306;2023-10-13T03:14:17;12.05;;;3.97;;
75090;SDS011;63674;48.048;8.306;2023-10-13T03:16:51;12.10;;;4.53;;
75090;SDS011;63674;48.048;8.306;2023-10-13T03:19:20;11.15;;;4.47;;
75090;SDS011;63674;48.048;8.306;2023-10-13T03:21:49;11.67;;;5.00;;
75090;SDS011;63674;48.048;8.306;2023-10-13T03:24:24;9.68;;;4.50;;
75090;SDS011;63674;48.048;8.306;2023-10-13T03:27:00;9.93;;;4.35;;
75090;SDS011;63674;48.048;8.306;2023-10-13T03:29:38;10.23;;;4.32;;
75090;SDS011;63674;48.048;8.306;2023-10-13T03:32:09;10.90;;;4.15;;
75090;SDS011;63674;48.048;8.306;2023-10-13T03:34:41;10.50;;;3.70;;
75090;SDS011;63674;48.048;8.306;2023-10-13T03:37:33;18.00;;;5.22;;
75090;SDS011;63674;48.048;8.306;2023-10-13T03:40:06;14.48;;;5.20;;
75090;SDS011;63674;48.048;8.306;2023-10-13T03:42:57;11.20;;;5.13;;
75090;SDS011;63674;48.048;8.306;2023-10-13T03:45:33;13.80;;;5.13;;
75090;SDS011;63674;48.048;8.306;2023-10-13T03:48:06;13.47;;;4.93;;
75090;SDS011;63674;48.048;8.306;2023-10-13T03:50:38;15.23;;;5.45;;
75090;SDS011;63674;48.048;8.306;2023-10-13T03:53:13;11.90;;;5.13;;
75090;SDS011;63674;48.048;8.306;2023-10-13T03:55:41;14.68;;;5.72;;
75090;SDS011;63674;48.048;8.306;2023-10-13T03:58:15;12.68;;;4.93;;
75090;SDS011;63674;48.048;8.306;2023-10-13T04:00:46;12.47;;;5.17;;
75090;SDS011;63674;48.048;8.306;2023-10-13T04:03:15;11.80;;;4.85;;
75090;SDS011;63674;48.048;8.306;2023-10-13T04:05:45;13.32;;;4.75;;
75090;SDS011;63674;48.048;8.306;2023-10-13T04:08:28;11.00;;;4.07;;
75090;SDS011;63674;48.048;8.306;2023-10-13T04:11:14;9.13;;;4.05;;
75090;SDS011;63674;48.048;8.306;2023-10-13T04:14:00;13.20;;;4.40;;
75090;SDS011;63674;48.048;8.306;2023-10-13T04:16:47;11.35;;;3.80;;
75090;SDS011;63674;48.048;8.306;2023-10-13T04:19:21;11.52;;;4.30;;
75090;SDS011;63674;48.048;8.306;2023-10-13T04:21:51;12.73;;;4.35;;
75090;SDS011;63674;48.048;8.306;2023-10-13T04:24:26;10.32;;;4.28;;
75090;SDS011;63674;48.048;8.306;2023-10-13T04:27:21;11.47;;;4.20;;
75090;SDS011;63674;48.048;8.306;2023-10-13T04:30:20;12.10;;;4.53;;
75090;SDS011;63674;48.048;8.306;2023-10-13T04:32:55;10.80;;;4.53;;
75090;SDS011;63674;48.048;8.306;2023-10-13T04:35:49;12.93;;;4.30;;
75090;SDS011;63674;48.048;8.306;2023-10-13T04:38:25;10.57;;;3.90;;
75090;SDS011;63674;48.048;8.306;2023-10-13T04:41:01;10.20;;;4.43;;
75090;SDS011;63674;48.048;8.306;2023-10-13T04:43:36;13.25;;;4.65;;
75090;SDS011;63674;48.048;8.306;2023-10-13T04:46:19;11.32;;;4.40;;
75090;SDS011;63674;48.048;8.306;2023-10-13T04:49:04;11.57;;;4.10;;
75090;SDS011;63674;48.048;8.306;2023-10-13T04:51:53;12.30;;;4.38;;
75090;SDS011;63674;48.048;8.306;2023-10-13T04:54:40;10.30;;;4.10;;
75090;SDS011;63674;48.048;8.306;2023-10-13T04:57:12;12.02;;;4.30;;
75090;SDS011;63674;48.048;8.306;2023-10-13T04:59:59;11.05;;;4.50;;
75090;SDS011;63674;48.048;8.306;2023-10-13T05:02:47;9.40;;;4.20;;
75090;SDS011;63674;48.048;8.306;2023-10-13T05:05:43;11.63;;;4.00;;
75090;SDS011;63674;48.048;8.306;2023-10-13T05:08:35;10.47;;;4.77;;
75090;SDS011;63674;48.048;8.306;2023-10-13T05:11:21;11.70;;;5.32;;
75090;SDS011;63674;48.048;8.306;2023-10-13T05:14:07;13.07;;;5.55;;
75090;SDS011;63674;48.048;8.306;2023-10-13T05:16:53;13.35;;;4.90;;
75090;SDS011;63674;48.048;8.306;2023-10-13T05:19:39;15.48;;;5.38;;
75090;SDS011;63674;48.048;8.306;2023-10-13T05:22:27;12.50;;;5.10;;
75090;SDS011;63674;48.048;8.306;2023-10-13T05:25:12;11.02;;;5.13;;
75090;SDS011;63674;48.048;8.306;2023-10-13T05:27:59;16.20;;;5.40;;
75090;SDS011;63674;48.048;8.306;2023-10-13T05:31:00;14.70;;;5.72;;
75090;SDS011;63674;48.048;8.306;2023-10-13T05:33:47;12.90;;;6.15;;
75090;SDS011;63674;48.048;8.306;2023-10-13T05:36:34;11.07;;;5.00;;
75090;SDS011;63674;48.048;8.306;2023-10-13T05:39:22;12.90;;;5.10;;
75090;SDS011;63674;48.048;8.306;2023-10-13T05:42:09;13.60;;;5.60;;
75090;SDS011;63674;48.048;8.306;2023-10-13T05:44:51;13.85;;;5.10;;
75090;SDS011;63674;48.048;8.306;2023-10-13T05:47:52;11.43;;;5.03;;
75090;SDS011;63674;48.048;8.306;2023-10-13T05:50:38;14.20;;;6.10;;
75090;SDS011;63674;48.048;8.306;2023-10-13T05:53:34;14.50;;;5.70;;
75090;SDS011;63674;48.048;8.306;2023-10-13T05:56:23;13.23;;;5.13;;
75090;SDS011;63674;48.048;8.306;2023-10-13T05:59:10;12.45;;;5.30;;
75090;SDS011;63674;48.048;8.306;2023-10-13T06:01:56;12.60;;;4.93;;
75090;SDS011;63674;48.048;8.306;2023-10-13T06:04:43;15.67;;;5.20;;
75090;SDS011;63674;48.048;8.306;2023-10-13T06:07:29;16.55;;;5.90;;
75090;SDS011;63674;48.048;8.306;2023-10-13T06:10:15;14.75;;;6.15;;
75090;SDS011;63674;48.048;8.306;2023-10-13T06:13:03;13.15;;;5.65;;
75090;SDS011;63674;48.048;8.306;2023-10-13T06:15:49;14.82;;;5.65;;
75090;SDS011;63674;48.048;8.306;2023-10-13T06:18:35;13.50;;;5.30;;
75090;SDS011;63674;48.048;8.306;2023-10-13T06:21:36;12.60;;;5.47;;
75090;SDS011;63674;48.048;8.306;2023-10-13T06:24:24;12.90;;;5.30;;
75090;SDS011;63674;48.048;8.306;2023-10-13T06:27:10;13.23;;;5.68;;
75090;SDS011;63674;48.048;8.306;2023-10-13T06:29:57;12.63;;;5.68;;
75090;SDS011;63674;48.048;8.306;2023-10-13T06:32:27;11.33;;;5.20;;
75090;SDS011;63674;48.048;8.306;2023-10-13T06:34:56;12.80;;;5.45;;
75090;SDS011;63674;48.048;8.306;2023-10-13T06:37:32;11.13;;;5.40;;
75090;SDS011;63674;48.048;8.306;2023-10-13T06:40:01;13.27;;;5.30;;
75090;SDS011;63674;48.048;8.306;2023-10-13T06:42:49;14.18;;;6.50;;
75090;SDS011;63674;48.048;8.306;2023-10-13T06:45:21;15.30;;;5.27;;
75090;SDS011;63674;48.048;8.306;2023-10-13T06:47:50;12.68;;;4.97;;
75090;SDS011;63674;48.048;8.306;2023-10-13T06:50:20;15.32;;;5.50;;
75090;SDS011;63674;48.048;8.306;2023-10-13T06:52:53;12.90;;;4.72;;
75090;SDS011;63674;48.048;8.306;2023-10-13T06:55:22;14.13;;;5.38;;
75090;SDS011;63674;48.048;8.306;2023-10-13T06:57:55;14.80;;;5.50;;
75090;SDS011;63674;48.048;8.306;2023-10-13T07:00:28;13.65;;;4.78;;
75090;SDS011;63674;48.048;8.306;2023-10-13T07:03:01;10.57;;;4.60;;
75090;SDS011;63674;48.048;8.306;2023-10-13T07:05:34;11.57;;;5.75;;
75090;SDS011;63674;48.048;8.306;2023-10-13T07:08:06;12.32;;;5.30;;
75090;SDS011;63674;48.048;8.306;2023-10-13T07:10:35;11.00;;;5.33;;
75090;SDS011;63674;48.048;8.306;2023-10-13T07:13:15;11.88;;;5.35;;
75090;SDS011;63674;48.048;8.306;2023-10-13T07:15:47;13.05;;;5.55;;
75090;SDS011;63674;48.048;8.306;2023-10-13T07:18:15;15.63;;;5.75;;
75090;SDS011;63674;48.048;8.306;2023-10-13T07:20:47;11.82;;;5.15;;
75090;SDS011;63674;48.048;8.306;2023-10-13T07:23:15;13.73;;;6.07;;
75090;SDS011;63674;48.048;8.306;2023-10-13T07:25:53;12.60;;;5.32;;
75090;SDS011;63674;48.048;8.306;2023-10-13T07:28:29;11.25;;;4.70;;
75090;SDS011;63674;48.048;8.306;2023-10-13T07:31:04;13.98;;;5.10;;
75090;SDS011;63674;48.048;8.306;2023-10-13T07:33:43;13.88;;;5.00;;
75090;SDS011;63674;48.048;8.306;2023-10-13T07:36:12;10.90;;;4.20;;
75090;SDS011;63674;48.048;8.306;2023-10-13T07:38:54;9.70;;;4.43;;
75090;SDS011;63674;48.048;8.306;2023-10-13T07:41:49;11.18;;;4.47;;
75090;SDS011;63674;48.048;8.306;2023-10-13T07:44:21;10.82;;;4.32;;
75090;SDS011;63674;48.048;8.306;2023-10-13T07:46:56;12.45;;;4.10;;
75090;SDS011;63674;48.048;8.306;2023-10-13T07:49:28;10.00;;;3.70;;
75090;SDS011;63674;48.048;8.306;2023-10-13T07:52:05;11.77;;;4.13;;
75090;SDS011;63674;48.048;8.306;2023-10-13T07:55:03;10.73;;;4.30;;
75090;SDS011;63674;48.048;8.306;2023-10-13T07:57:46;10.10;;;3.83;;
75090;SDS011;63674;48.048;8.306;2023-10-13T08:00:22;13.85;;;3.83;;
75090;SDS011;63674;48.048;8.306;2023-10-13T08:03:15;12.10;;;4.23;;
75090;SDS011;63674;48.048;8.306;2023-10-13T08:05:59;12.82;;;4.80;;
75090;SDS011;63674;48.048;8.306;2023-10-13T08:08:33;12.27;;;4.32;;
75090;SDS011;63674;48.048;8.306;2023-10-13T08:11:12;19.52;;;6.07;;
75090;SDS011;63674;48.048;8.306;2023-10-13T08:13:51;16.42;;;5.63;;
75090;SDS011;63674;48.048;8.306;2023-10-13T08:16:38;18.77;;;4.60;;
75090;SDS011;63674;48.048;8.306;2023-10-13T08:19:21;12.82;;;3.30;;
75090;SDS011;63674;48.048;8.306;2023-10-13T08:21:54;9.75;;;3.00;;
75090;SDS011;63674;48.048;8.306;2023-10-13T08:24:26;14.32;;;3.38;;
75090;SDS011;63674;48.048;8.306;2023-10-13T08:27:17;11.68;;;2.65;;
75090;SDS011;63674;48.048;8.306;2023-10-13T08:30:10;10.70;;;2.70;;
75090;SDS011;63674;48.048;8.306;2023-10-13T08:32:59;6.63;;;2.65;;
75090;SDS011;63674;48.048;8.306;2023-10-13T08:35:45;9.95;;;2.65;;
75090;SDS011;63674;48.048;8.306;2023-10-13T08:38:32;12.93;;;2.72;;
75090;SDS011;63674;48.048;8.306;2023-10-13T08:41:17;12.95;;;3.67;;
75090;SDS011;63674;48.048;8.306;2023-10-13T08:44:01;9.63;;;3.40;;
75090;SDS011;63674;48.048;8.306;2023-10-13T08:46:32;13.30;;;5.50;;
75090;SDS011;63674;48.048;8.306;2023-10-13T08:49:32;11.25;;;4.78;;
75090;SDS011;63674;48.048;8.306;2023-10-13T08:52:11;10.90;;;5.32;;
75090;SDS011;63674;48.048;8.306;2023-10-13T08:55:02;10.63;;;4.70;;
75090;SDS011;63674;48.048;8.306;2023-10-13T08:58:00;11.33;;;5.10;;
75090;SDS011;63674;48.048;8.306;2023-10-13T09:00:40;17.80;;;5.45;;
75090;SDS011;63674;48.048;8.306;2023-10-13T09:03:39;10.52;;;4.10;;
75090;SDS011;63674;48.048;8.306;2023-10-13T09:06:11;11.02;;;4.20;;
75090;SDS011;63674;48.048;8.306;2023-10-13T09:08:43;15.40;;;4.70;;
75090;SDS011;63674;48.048;8.306;2023-10-13T09:11:33;11.10;;;3.40;;
75090;SDS011;63674;48.048;8.306;2023-10-13T09:14:16;9.43;;;2.40;;
75090;SDS011;63674;48.048;8.306;2023-10-13T09:17:01;10.25;;;3.67;;
75090;SDS011;63674;48.048;8.306;2023-10-13T09:19:46;12.93;;;3.70;;
75090;SDS011;63674;48.048;8.306;2023-10-13T09:22:22;11.68;;;4.40;;
75090;SDS011;63674;48.048;8.306;2023-10-13T09:24:57;8.23;;;3.30;;
75090;SDS011;63674;48.048;8.306;2023-10-13T09:27:30;14.68;;;3.20;;
75090;SDS011;63674;48.048;8.306;2023-10-13T09:30:00;9.07;;;4.07;;
75090;SDS011;63674;48.048;8.306;2023-10-13T09:32:36;11.25;;;4.57;;
75090;SDS011;63674;48.048;8.306;2023-10-13T09:35:16;12.98;;;4.80;;
75090;SDS011;63674;48.048;8.306;2023-10-13T09:37:45;13.40;;;4.60;;
75090;SDS011;63674;48.048;8.306;2023-10-13T09:40:16;8.52;;;3.83;;
75090;SDS011;63674;48.048;8.306;2023-10-13T09:42:54;12.63;;;3.08;;
75090;SDS011;63674;48.048;8.306;2023-10-13T09:45:27;11.32;;;2.80;;
75090;SDS011;63674;48.048;8.306;2023-10-13T09:48:03;9.35;;;2.60;;
75090;SDS011;63674;48.048;8.306;2023-10-13T09:50:43;12.07;;;2.37;;
75090;SDS011;63674;48.048;8.306;2023-10-13T09:53:15;8.93;;;2.53;;
75090;SDS011;63674;48.048;8.306;2023-10-13T09:55:47;9.13;;;2.70;;
75090;SDS011;63674;48.048;8.306;2023-10-13T09:58:21;7.38;;;2.38;;
75090;SDS011;63674;48.048;8.306;2023-10-13T10:00:56;10.80;;;2.60;;
75090;SDS011;63674;48.048;8.306;2023-10-13T10:03:43;7.97;;;2.30;;
75090;SDS011;63674;48.048;8.306;2023-10-13T10:06:21;8.43;;;2.47;;
75090;SDS011;63674;48.048;8.306;2023-10-13T10:09:03;8.82;;;2.22;;
75090;SDS011;63674;48.048;8.306;2023-10-13T10:11:48;8.50;;;2.00;;
75090;SDS011;63674;48.048;8.306;2023-10-13T10:14:56;7.93;;;2.25;;
75090;SDS011;63674;48.048;8.306;2023-10-13T10:17:40;9.63;;;2.20;;
75090;SDS011;63674;48.048;8.306;2023-10-13T10:20:12;9.20;;;2.08;;
75090;SDS011;63674;48.048;8.306;2023-10-13T10:22:55;7.72;;;2.15;;
75090;SDS011;63674;48.048;8.306;2023-10-13T10:25:29;8.38;;;2.08;;
75090;SDS011;63674;48.048;8.306;2023-10-13T10:28:04;6.90;;;2.30;;
75090;SDS011;63674;48.048;8.306;2023-10-13T10:30:34;7.87;;;2.10;;
75090;SDS011;63674;48.048;8.306;2023-10-13T10:33:06;7.68;;;2.10;;
75090;SDS011;63674;48.048;8.306;2023-10-13T10:35:39;8.07;;;2.20;;
75090;SDS011;63674;48.048;8.306;2023-10-13T10:38:12;8.27;;;2.33;;
75090;SDS011;63674;48.048;8.306;2023-10-13T10:40:51;8.30;;;2.40;;
75090;SDS011;63674;48.048;8.306;2023-10-13T10:43:27;9.73;;;2.53;;
75090;SDS011;63674;48.048;8.306;2023-10-13T10:46:09;8.90;;;2.50;;
75090;SDS011;63674;48.048;8.306;2023-10-13T10:48:43;6.82;;;2.45;;
75090;SDS011;63674;48.048;8.306;2023-10-13T10:51:14;9.70;;;2.35;;
75090;SDS011;63674;48.048;8.306;2023-10-13T10:53:48;7.55;;;2.30;;
75090;SDS011;63674;48.048;8.306;2023-10-13T10:56:18;10.43;;;2.53;;
75090;SDS011;63674;48.048;8.306;2023-10-13T10:58:54;7.82;;;2.30;;
75090;SDS011;63674;48.048;8.306;2023-10-13T11:01:27;10.27;;;2.40;;
75090;SDS011;63674;48.048;8.306;2023-10-13T11:04:05;8.18;;;2.58;;
75090;SDS011;63674;48.048;8.306;2023-10-13T11:06:46;6.80;;;2.38;;
75090;SDS011;63674;48.048;8.306;2023-10-13T11:09:24;7.50;;;2.40;;
75090;SDS011;63674;48.048;8.306;2023-10-13T11:12:10;7.97;;;2.40;;
75090;SDS011;63674;48.048;8.306;2023-10-13T11:15:00;7.53;;;2.50;;
75090;SDS011;63674;48.048;8.306;2023-10-13T11:17:41;7.80;;;2.65;;
75090;SDS011;63674;48.048;8.306;2023-10-13T11:20:18;6.93;;;2.22;;
75090;SDS011;63674;48.048;8.306;2023-10-13T11:23:00;9.97;;;2.50;;
75090;SDS011;63674;48.048;8.306;2023-10-13T11:25:31;7.22;;;2.60;;
75090;SDS011;63674;48.048;8.306;2023-10-13T11:28:12;7.28;;;2.58;;
75090;SDS011;63674;48.048;8.306;2023-10-13T11:30:48;8.68;;;2.88;;
75090;SDS011;63674;48.048;8.306;2023-10-13T11:33:18;7.07;;;2.28;;
75090;SDS011;63674;48.048;8.306;2023-10-13T11:35:50;9.30;;;2.63;;
75090;SDS011;63674;48.048;8.306;2023-10-13T11:38:28;14.20;;;2.88;;
75090;SDS011;63674;48.048;8.306;2023-10-13T11:41:09;7.13;;;2.58;;
75090;SDS011;63674;48.048;8.306;2023-10-13T11:43:43;8.10;;;2.90;;
75090;SDS011;63674;48.048;8.306;2023-10-13T11:46:40;12.10;;;2.70;;
75090;SDS011;63674;48.048;8.306;2023-10-13T11:49:35;10.33;;;2.50;;
75090;SDS011;63674;48.048;8.306;2023-10-13T11:52:04;9.15;;;2.65;;
75090;SDS011;63674;48.048;8.306;2023-10-13T11:54:44;10.00;;;2.70;;
75090;SDS011;63674;48.048;8.306;2023-10-13T11:57:14;7.72;;;2.60;;
75090;SDS011;63674;48.048;8.306;2023-10-13T11:59:46;7.57;;;2.75;;
75090;SDS011;63674;48.048;8.306;2023-10-13T12:02:24;7.10;;;2.57;;
75090;SDS011;63674;48.048;8.306;2023-10-13T12:05:11;8.32;;;2.75;;
75090;SDS011;63674;48.048;8.306;2023-10-13T12:07:40;7.60;;;2.85;;
75090;SDS011;63674;48.048;8.306;2023-10-13T12:10:15;8.18;;;2.47;;
75090;SDS011;63674;48.048;8.306;2023-10-13T12:13:00;7.10;;;2.40;;
75090;SDS011;63674;48.048;8.306;2023-10-13T12:15:35;7.20;;;2.50;;
75090;SDS011;63674;48.048;8.306;2023-10-13T12:18:16;8.40;;;2.78;;
75090;SDS011;63674;48.048;8.306;2023-10-13T12:20:46;9.63;;;2.25;;
75090;SDS011;63674;48.048;8.306;2023-10-13T12:23:16;6.18;;;2.53;;
75090;SDS011;63674;48.048;8.306;2023-10-13T12:25:47;7.28;;;2.65;;
75090;SDS011;63674;48.048;8.306;2023-10-13T12:28:33;9.73;;;2.70;;
75090;SDS011;63674;48.048;8.306;2023-10-13T12:31:07;7.40;;;2.50;;
75090;SDS011;63674;48.048;8.306;2023-10-13T12:33:40;11.70;;;2.25;;
75090;SDS011;63674;48.048;8.306;2023-10-13T12:36:08;7.35;;;2.22;;
75090;SDS011;63674;48.048;8.306;2023-10-13T12:38:42;7.93;;;2.30;;
75090;SDS011;63674;48.048;8.306;2023-10-13T12:41:54;9.20;;;2.10;;
75090;SDS011;63674;48.048;8.306;2023-10-13T12:44:41;9.32;;;2.17;;
75090;SDS011;63674;48.048;8.306;2023-10-13T12:47:27;8.52;;;2.40;;
75090;SDS011;63674;48.048;8.306;2023-10-13T12:50:15;8.35;;;2.20;;
75090;SDS011;63674;48.048;8.306;2023-10-13T12:53:10;6.70;;;2.00;;
75090;SDS011;63674;48.048;8.306;2023-10-13T12:55:40;8.37;;;2.40;;
75090;SDS011;63674;48.048;8.306;2023-10-13T12:58:09;5.70;;;1.92;;
75090;SDS011;63674;48.048;8.306;2023-10-13T13:00:37;6.85;;;2.25;;
75090;SDS011;63674;48.048;8.306;2023-10-13T13:03:14;7.40;;;2.20;;
75090;SDS011;63674;48.048;8.306;2023-10-13T13:05:44;9.77;;;2.20;;
75090;SDS011;63674;48.048;8.306;2023-10-13T13:08:14;8.57;;;2.23;;
75090;SDS011;63674;48.048;8.306;2023-10-13T13:10:49;8.10;;;2.22;;
75090;SDS011;63674;48.048;8.306;2023-10-13T13:13:19;5.60;;;2.30;;
75090;SDS011;63674;48.048;8.306;2023-10-13T13:15:53;7.93;;;2.38;;
75090;SDS011;63674;48.048;8.306;2023-10-13T13:18:23;7.25;;;2.20;;
75090;SDS011;63674;48.048;8.306;2023-10-13T13:20:53;7.70;;;2.30;;
75090;SDS011;63674;48.048;8.306;2023-10-13T13:23:22;5.85;;;2.40;;
75090;SDS011;63674;48.048;8.306;2023-10-13T13:25:53;8.65;;;2.60;;
75090;SDS011;63674;48.048;8.306;2023-10-13T13:28:24;10.82;;;2.60;;
75090;SDS011;63674;48.048;8.306;2023-10-13T13:30:56;7.80;;;2.20;;
75090;SDS011;63674;48.048;8.306;2023-10-13T13:33:25;7.93;;;2.17;;
75090;SDS011;63674;48.048;8.306;2023-10-13T13:36:02;9.80;;;2.47;;
75090;SDS011;63674;48.048;8.306;2023-10-13T13:38:31;8.40;;;2.63;;
75090;SDS011;63674;48.048;8.306;2023-10-13T13:41:00;8.82;;;2.50;;
75090;SDS011;63674;48.048;8.306;2023-10-13T13:43:36;8.52;;;2.40;;
75090;SDS011;63674;48.048;8.306;2023-10-13T13:46:18;6.60;;;1.90;;
75090;SDS011;63674;48.048;8.306;2023-10-13T13:48:51;6.20;;;2.35;;
75090;SDS011;63674;48.048;8.306;2023-10-13T13:51:26;8.38;;;2.70;;
75090;SDS011;63674;48.048;8.306;2023-10-13T13:53:57;8.88;;;2.50;;
75090;SDS011;63674;48.048;8.306;2023-10-13T13:56:31;7.55;;;2.15;;
75090;SDS011;63674;48.048;8.306;2023-10-13T13:59:05;8.93;;;2.50;;
75090;SDS011;63674;48.048;8.306;2023-10-13T14:01:35;6.70;;;2.30;;
75090;SDS011;63674;48.048;8.306;2023-10-13T14:04:04;6.95;;;2.28;;
75090;SDS011;63674;48.048;8.306;2023-10-13T14:06:36;10.10;;;2.63;;
75090;SDS011;63674;48.048;8.306;2023-10-13T14:09:05;8.13;;;2.30;;
75090;SDS011;63674;48.048;8.306;2023-10-13T14:11:42;6.83;;;2.70;;
75090;SDS011;63674;48.048;8.306;2023-10-13T14:14:28;8.23;;;2.42;;
75090;SDS011;63674;48.048;8.306;2023-10-13T14:17:00;7.20;;;2.50;;
75090;SDS011;63674;48.048;8.306;2023-10-13T14:19:34;9.05;;;2.50;;
75090;SDS011;63674;48.048;8.306;2023-10-13T14:22:09;6.63;;;2.70;;
75090;SDS011;63674;48.048;8.306;2023-10-13T14:24:39;13.17;;;2.57;;
75090;SDS011;63674;48.048;8.306;2023-10-13T14:27:14;9.68;;;2.78;;
75090;SDS011;63674;48.048;8.306;2023-10-13T14:29:46;8.93;;;2.70;;
75090;SDS011;63674;48.048;8.306;2023-10-13T14:32:20;10.25;;;2.70;;
75090;SDS011;63674;48.048;8.306;2023-10-13T14:34:52;8.60;;;2.92;;
75090;SDS011;63674;48.048;8.306;2023-10-13T14:37:25;14.13;;;2.83;;
75090;SDS011;63674;48.048;8.306;2023-10-13T14:39:56;9.30;;;2.40;;
75090;SDS011;63674;48.048;8.306;2023-10-13T14:42:26;7.97;;;3.00;;
75090;SDS011;63674;48.048;8.306;2023-10-13T14:45:02;21.98;;;2.83;;
75090;SDS011;63674;48.048;8.306;2023-10-13T14:47:40;9.70;;;2.50;;
75090;SDS011;63674;48.048;8.306;2023-10-13T14:50:09;7.93;;;2.33;;
75090;SDS011;63674;48.048;8.306;2023-10-13T14:52:45;7.95;;;2.15;;
75090;SDS011;63674;48.048;8.306;2023-10-13T14:55:15;7.47;;;2.38;;
75090;SDS011;63674;48.048;8.306;2023-10-13T14:57:48;7.68;;;2.58;;
75090;SDS011;63674;48.048;8.306;2023-10-13T15:00:18;8.27;;;2.30;;
75090;SDS011;63674;48.048;8.306;2023-10-13T15:02:52;7.20;;;2.37;;
75090;SDS011;63674;48.048;8.306;2023-10-13T15:05:22;10.18;;;2.30;;
75090;SDS011;63674;48.048;8.306;2023-10-13T15:07:52;7.32;;;2.60;;
75090;SDS011;63674;48.048;8.306;2023-10-13T15:10:21;8.45;;;2.60;;
75090;SDS011;63674;48.048;8.306;2023-10-13T15:12:51;10.48;;;2.58;;
75090;SDS011;63674;48.048;8.306;2023-10-13T15:15:19;10.37;;;3.00;;
75090;SDS011;63674;48.048;8.306;2023-10-13T15:17:48;8.48;;;2.85;;
75090;SDS011;63674;48.048;8.306;2023-10-13T15:20:17;8.27;;;2.70;;
75090;SDS011;63674;48.048;8.306;2023-10-13T15:22:45;11.82;;;2.75;;
75090;SDS011;63674;48.048;8.306;2023-10-13T15:25:17;7.40;;;2.90;;
75090;SDS011;63674;48.048;8.306;2023-10-13T15:27:57;7.77;;;3.20;;
75090;SDS011;63674;48.048;8.306;2023-10-13T15:30:29;7.30;;;2.60;;
75090;SDS011;63674;48.048;8.306;2023-10-13T15:33:11;9.02;;;3.00;;
75090;SDS011;63674;48.048;8.306;2023-10-13T15:35:40;8.43;;;3.35;;
75090;SDS011;63674;48.048;8.306;2023-10-13T15:38:12;8.32;;;3.00;;
75090;SDS011;63674;48.048;8.306;2023-10-13T15:40:43;8.87;;;2.90;;
75090;SDS011;63674;48.048;8.306;2023-10-13T15:43:12;9.65;;;3.00;;
75090;SDS011;63674;48.048;8.306;2023-10-13T15:45:41;10.98;;;3.72;;
75090;SDS011;63674;48.048;8.306;2023-10-13T15:48:10;7.43;;;2.70;;